Main page
METAR-TAF:

METAR-TAF

Airports :

Corfu International Airport

Corfu, Greece

latitude: 39-37N, longitude: 019-55E, elevation: 2 m

Current weather observation

The report was made 43 minutes ago, at 12:20 UTC
Wind 8 kt from the West
Temperature 34°C
Humidity 34%
Pressure 1015 hPa
Visibility 10 km or more
no clouds below 1500 m and no cumulonimbus

METAR: LGKR 221220Z 26008KT CAVOK 34/16 Q1015 NOSIG

Time: 16:03 (13:03 UTC)

Forecast

The report was made 2 hours and 3 minutes ago, at 11:00 UTC
Forecast valid from 22 at 12 UTC to 23 at 12 UTC
Wind 5 kt from variable directions
Visibility 10 km or more
Few clouds at a height of 2500 ft
Temporary
from 22 at 12 UTC to 22 at 16 UTC
Wind 10 kt from the West

TAF: LGKR 221100Z 2212/2312 VRB05KT 9999 FEW025 TEMPO 2212/2216 28010KT

Weather observations and forecasts of more than 4000 airports (METAR and TAF reports).

The available stations are represented by yellow and red dots on the map.

Hover mouse over dot to see the name of the station.

Then click to see weather observations and forecasts.

To change the map : click on the green buttons with a black cross to zoom in, on the green button with a dash to zoom out, or on the green arrows for adjacent maps.


METAR-TAF: